createdAt,value
2023-05-02T00:01:33.758Z,9.14
2023-05-02T00:04:06.109Z,9.14
2023-05-02T00:06:36.054Z,9.13
2023-05-02T00:09:06.582Z,9.16
2023-05-02T00:11:36.088Z,9.13
2023-05-02T00:14:05.641Z,9.15
2023-05-02T00:16:35.170Z,9.11
2023-05-02T00:19:08.181Z,9.11
2023-05-02T00:21:37.688Z,9.09
2023-05-02T00:24:08.074Z,9.13
2023-05-02T00:26:37.937Z,9.13
2023-05-02T00:29:08.123Z,9.14
2023-05-02T00:31:37.788Z,9.18
2023-05-02T00:34:09.861Z,9.15
2023-05-02T00:36:39.368Z,9.14
2023-05-02T00:39:08.890Z,9.19
2023-05-02T00:41:38.441Z,9.21
2023-05-02T00:44:08.632Z,9.16
2023-05-02T00:46:38.490Z,9.16
2023-05-02T00:49:10.786Z,9.11
2023-05-02T00:51:40.391Z,9.07
2023-05-02T00:54:11.071Z,9.07
2023-05-02T00:56:40.536Z,9.09
2023-05-02T00:59:11.684Z,9.04
2023-05-02T01:01:50.266Z,9.02
2023-05-02T01:04:34.812Z,8.94
2023-05-02T01:07:13.345Z,8.96
2023-05-02T01:09:48.843Z,8.93
2023-05-02T01:12:23.516Z,8.93
2023-05-02T01:14:56.949Z,8.86
2023-05-02T01:17:30.110Z,8.82
2023-05-02T01:20:03.741Z,8.74
2023-05-02T01:22:34.326Z,8.73
2023-05-02T01:25:10.625Z,8.70
2023-05-02T01:27:46.534Z,8.67
2023-05-02T01:30:20.778Z,8.65
2023-05-02T01:32:50.756Z,8.61
2023-05-02T01:35:21.521Z,8.56
2023-05-02T01:37:51.659Z,8.56
2023-05-02T01:40:23.382Z,8.61
2023-05-02T01:42:54.285Z,8.59
2023-05-02T01:45:27.768Z,8.59
2023-05-02T01:47:57.739Z,8.58
2023-05-02T01:50:28.707Z,8.59
2023-05-02T01:52:58.528Z,8.55
2023-05-02T01:55:29.147Z,8.56
2023-05-02T01:57:59.553Z,8.58
2023-05-02T02:00:32.514Z,8.54
2023-05-02T02:03:02.666Z,8.58
2023-05-02T02:05:32.707Z,8.57
2023-05-02T02:08:02.218Z,8.60
2023-05-02T02:10:35.253Z,8.58
2023-05-02T02:13:10.382Z,8.62
2023-05-02T02:15:42.932Z,8.61
2023-05-02T02:18:16.135Z,8.60
2023-05-02T02:20:47.093Z,8.58
2023-05-02T02:23:18.055Z,8.59
2023-05-02T02:25:48.250Z,8.57
2023-05-02T02:28:17.957Z,8.51
2023-05-02T02:30:50.362Z,8.47
2023-05-02T02:33:20.500Z,8.42
2023-05-02T02:35:54.327Z,8.30
2023-05-02T02:38:32.035Z,8.19
2023-05-02T02:41:06.402Z,8.04
2023-05-02T02:43:39.458Z,7.91
2023-05-02T02:46:19.026Z,7.82
2023-05-02T02:48:55.752Z,7.65
2023-05-02T02:51:32.067Z,7.50
2023-05-02T02:54:15.437Z,7.41
2023-05-02T02:57:01.721Z,7.25
2023-05-02T02:59:33.676Z,7.22
2023-05-02T03:02:10.418Z,7.12
2023-05-02T03:04:42.343Z,7.13
2023-05-02T03:07:12.326Z,7.04
2023-05-02T03:09:45.535Z,6.75
2023-05-02T03:12:15.471Z,6.51
2023-05-02T03:14:45.344Z,6.37
2023-05-02T03:17:17.483Z,6.22
2023-05-02T03:19:47.417Z,6.24
2023-05-02T03:22:16.984Z,6.17
2023-05-02T03:24:46.488Z,6.10
2023-05-02T03:27:15.948Z,6.06
2023-05-02T03:29:45.606Z,6.08
2023-05-02T03:32:17.638Z,6.05
2023-05-02T03:34:47.255Z,6.13
2023-05-02T03:37:16.800Z,6.12
2023-05-02T03:39:47.036Z,6.07
2023-05-02T03:42:16.546Z,5.98
2023-05-02T03:44:46.049Z,5.99
2023-05-02T03:47:18.188Z,5.98
2023-05-02T03:49:47.687Z,5.94
2023-05-02T03:52:17.156Z,5.94
2023-05-02T03:54:46.898Z,5.94
2023-05-02T03:57:16.367Z,5.93
2023-05-02T03:59:45.983Z,6.02
2023-05-02T04:02:18.481Z,6.28
2023-05-02T04:04:48.153Z,6.29
2023-05-02T04:07:19.628Z,6.70
2023-05-02T04:09:49.510Z,6.91
2023-05-02T04:12:19.082Z,7.20
2023-05-02T04:14:48.625Z,7.24
2023-05-02T04:17:20.948Z,6.75
2023-05-02T04:19:51.559Z,6.98
2023-05-02T04:22:21.164Z,6.75
2023-05-02T04:24:50.685Z,6.93
2023-05-02T04:27:20.219Z,6.98
2023-05-02T04:29:51.137Z,7.00
2023-05-02T04:32:23.377Z,7.19
2023-05-02T04:34:53.144Z,6.96
2023-05-02T04:37:22.658Z,6.69
2023-05-02T04:39:52.180Z,6.88
2023-05-02T04:42:21.709Z,6.65
2023-05-02T04:44:51.836Z,6.52
2023-05-02T04:47:23.897Z,6.41
2023-05-02T04:49:53.357Z,6.29
2023-05-02T04:52:22.901Z,6.14
2023-05-02T04:54:52.478Z,6.04
2023-05-02T04:57:24.741Z,5.93
2023-05-02T04:59:54.484Z,6.00
2023-05-02T05:02:26.812Z,5.92
2023-05-02T05:04:56.492Z,5.86
2023-05-02T05:07:26.235Z,5.83
2023-05-02T05:09:55.747Z,5.79
2023-05-02T05:12:25.324Z,5.73
2023-05-02T05:14:54.826Z,5.63
2023-05-02T05:17:26.937Z,5.67
2023-05-02T05:19:56.756Z,5.77
2023-05-02T05:22:26.261Z,5.66
2023-05-02T05:24:56.565Z,5.62
2023-05-02T05:27:26.039Z,5.66
2023-05-02T05:29:55.652Z,5.68
2023-05-02T05:32:27.886Z,5.69
2023-05-02T05:34:57.581Z,5.76
2023-05-02T05:37:27.043Z,5.75
2023-05-02T05:39:56.525Z,5.65
2023-05-02T05:42:26.046Z,5.68
2023-05-02T05:44:55.583Z,5.66
2023-05-02T05:47:28.088Z,5.72
2023-05-02T05:49:58.293Z,5.65
2023-05-02T05:52:28.092Z,5.65
2023-05-02T05:54:58.326Z,5.67
2023-05-02T05:57:27.808Z,5.66
2023-05-02T05:59:57.541Z,5.68
2023-05-02T06:02:30.216Z,5.67
2023-05-02T06:04:59.847Z,5.74
2023-05-02T06:07:29.651Z,5.76
2023-05-02T06:09:59.592Z,5.81
2023-05-02T06:12:29.273Z,5.87
2023-05-02T06:14:58.856Z,5.93
2023-05-02T06:17:31.467Z,5.85
2023-05-02T06:20:01.291Z,5.84
2023-05-02T06:22:31.076Z,5.85
2023-05-02T06:25:01.045Z,5.91
2023-05-02T06:27:32.956Z,6.66
2023-05-02T06:30:03.827Z,6.41
2023-05-02T06:32:36.348Z,6.65
2023-05-02T06:35:06.083Z,6.69
2023-05-02T06:37:37.156Z,6.58
2023-05-02T06:40:07.628Z,6.58
2023-05-02T06:42:37.199Z,6.68
2023-05-02T06:45:07.902Z,6.44
2023-05-02T06:47:40.075Z,6.21
2023-05-02T06:50:11.655Z,6.18
2023-05-02T06:52:41.155Z,6.21
2023-05-02T06:55:11.645Z,6.15
2023-05-02T06:57:41.459Z,6.11
2023-05-02T07:00:13.082Z,6.20
2023-05-02T07:02:45.176Z,6.24
2023-05-02T07:05:15.796Z,6.24
2023-05-02T07:07:45.534Z,6.29
2023-05-02T07:10:15.724Z,6.38
2023-05-02T07:12:45.252Z,6.35
2023-05-02T07:15:16.650Z,6.71
2023-05-02T07:17:49.771Z,6.91
2023-05-02T07:20:20.076Z,7.09
2023-05-02T07:22:49.814Z,6.86
2023-05-02T07:25:19.512Z,6.91
2023-05-02T07:27:49.098Z,6.57
2023-05-02T07:30:18.712Z,6.32
2023-05-02T07:32:50.850Z,6.48
2023-05-02T07:35:23.226Z,6.44
2023-05-02T07:37:52.989Z,6.46
2023-05-02T07:40:23.061Z,6.38
2023-05-02T07:42:53.153Z,6.40
2023-05-02T07:45:22.995Z,6.46
2023-05-02T07:47:55.172Z,6.54
2023-05-02T07:50:24.758Z,6.52
2023-05-02T07:52:54.255Z,6.46
2023-05-02T07:55:26.632Z,6.51
2023-05-02T07:57:56.151Z,6.52
2023-05-02T08:00:25.676Z,6.55
2023-05-02T08:02:57.826Z,6.53
2023-05-02T08:05:27.748Z,6.71
2023-05-02T08:07:57.232Z,6.60
2023-05-02T08:10:27.446Z,6.69
2023-05-02T08:12:57.054Z,6.78
2023-05-02T08:15:26.669Z,6.84
2023-05-02T08:17:59.964Z,6.96
2023-05-02T08:20:29.856Z,6.96
2023-05-02T08:23:00.078Z,6.86
2023-05-02T08:25:30.604Z,6.88
2023-05-02T08:28:00.137Z,7.07
2023-05-02T08:30:29.656Z,7.25
2023-05-02T08:33:01.798Z,7.24
2023-05-02T08:35:32.112Z,7.17
2023-05-02T08:38:01.630Z,7.28
2023-05-02T08:40:40.977Z,7.27
2023-05-02T08:43:11.805Z,7.23
2023-05-02T08:45:43.163Z,7.24
2023-05-02T08:48:17.164Z,7.25
2023-05-02T08:50:48.620Z,7.43
2023-05-02T08:53:19.957Z,7.53
2023-05-02T08:55:53.357Z,7.47
2023-05-02T08:58:23.002Z,7.54
2023-05-02T09:00:53.249Z,7.57
2023-05-02T09:03:32.407Z,7.96
2023-05-02T09:06:09.936Z,7.83
2023-05-02T09:08:40.470Z,7.87
2023-05-02T09:11:11.997Z,7.94
2023-05-02T09:13:43.041Z,7.90
2023-05-02T09:16:14.160Z,8.03
2023-05-02T09:18:47.562Z,7.93
2023-05-02T09:21:20.701Z,8.19
2023-05-02T09:23:53.019Z,8.32
2023-05-02T09:26:24.124Z,8.35
2023-05-02T09:28:55.291Z,8.71
2023-05-02T09:34:11.227Z,8.65
2023-05-02T09:36:42.710Z,8.44
2023-05-02T09:39:14.011Z,8.40
2023-05-02T09:41:44.477Z,8.33
2023-05-02T09:44:14.896Z,8.45
2023-05-02T09:46:45.364Z,8.28
2023-05-02T09:49:19.212Z,8.55
2023-05-02T09:51:49.990Z,8.47
2023-05-02T09:54:38.157Z,8.28
2023-05-02T09:57:08.101Z,8.45
2023-05-02T09:59:37.665Z,8.57
2023-05-02T10:02:10.578Z,8.59
2023-05-02T10:04:43.142Z,8.56
2023-05-02T10:07:13.656Z,8.54
2023-05-02T10:09:46.733Z,8.64
2023-05-02T10:12:18.062Z,8.54
2023-05-02T10:14:53.640Z,8.45
2023-05-02T10:17:26.216Z,8.42
2023-05-02T10:20:00.644Z,8.29
2023-05-02T10:22:31.287Z,8.42
2023-05-02T10:25:02.274Z,8.45
2023-05-02T10:27:33.188Z,8.82
2023-05-02T10:30:04.864Z,9.11
2023-05-02T10:32:36.127Z,9.15
2023-05-02T10:35:09.562Z,9.31
2023-05-02T10:37:40.185Z,9.12
2023-05-02T10:40:13.760Z,9.24
2023-05-02T10:42:46.362Z,9.22
2023-05-02T10:45:16.496Z,9.06
2023-05-02T10:47:46.493Z,9.04
2023-05-02T10:50:19.795Z,8.94
2023-05-02T10:52:49.515Z,8.95
2023-05-02T10:55:20.679Z,9.04
2023-05-02T10:58:24.104Z,9.13
2023-05-02T11:00:54.119Z,9.10
2023-05-02T11:03:53.741Z,9.07
2023-05-02T11:06:26.283Z,8.99
2023-05-02T11:08:56.126Z,8.91
2023-05-02T11:11:44.258Z,8.85
2023-05-02T11:14:14.833Z,8.85
2023-05-02T11:17:08.618Z,8.97
2023-05-02T11:20:08.800Z,8.97
2023-05-02T11:22:41.822Z,9.36
2023-05-02T11:25:31.867Z,9.47
2023-05-02T11:28:01.395Z,9.44
2023-05-02T11:30:48.852Z,9.31
2023-05-02T11:33:22.192Z,9.18
2023-05-02T11:35:51.996Z,8.99
2023-05-02T11:38:27.820Z,9.01
2023-05-02T11:41:03.205Z,8.81
2023-05-02T11:43:33.024Z,8.94
2023-05-02T11:46:06.100Z,9.10
2023-05-02T11:48:35.949Z,9.21
2023-05-02T11:51:07.425Z,9.23
2023-05-02T11:53:43.506Z,9.20
2023-05-02T11:56:13.372Z,9.11
2023-05-02T11:58:44.442Z,9.01
2023-05-02T12:01:16.176Z,8.96
2023-05-02T12:03:46.251Z,8.88
2023-05-02T12:06:19.000Z,8.75
2023-05-02T12:08:55.725Z,8.66
2023-05-02T12:11:26.515Z,8.63
2023-05-02T12:13:56.069Z,8.51
2023-05-02T12:16:25.694Z,8.60
2023-05-02T12:18:58.098Z,8.73
2023-05-02T12:21:28.616Z,8.94
2023-05-02T12:24:01.031Z,9.07
2023-05-02T12:26:32.756Z,9.19
2023-05-02T12:29:02.955Z,9.14
2023-05-02T12:31:33.505Z,9.04
2023-05-02T12:34:03.433Z,8.98
2023-05-02T12:36:33.661Z,8.96
2023-05-02T12:39:06.176Z,9.04
2023-05-02T12:41:37.199Z,9.05
2023-05-02T12:44:08.012Z,8.80
2023-05-02T12:46:37.735Z,8.87
2023-05-02T12:49:09.845Z,8.97
2023-05-02T12:51:39.855Z,8.88
2023-05-02T12:54:22.596Z,8.91
2023-05-02T12:56:52.369Z,8.84
2023-05-02T12:59:30.618Z,8.85
2023-05-02T13:02:00.220Z,8.78
2023-05-02T13:04:40.275Z,8.67
2023-05-02T13:07:09.827Z,8.70
2023-05-02T13:09:42.100Z,8.74
2023-05-02T13:12:11.635Z,9.07
2023-05-02T13:14:41.158Z,9.61
2023-05-02T13:17:11.453Z,10.15
2023-05-02T13:19:47.572Z,10.64
2023-05-02T13:22:23.762Z,10.15
2023-05-02T13:24:56.243Z,9.65
2023-05-02T13:27:26.212Z,9.29
2023-05-02T13:29:56.148Z,9.31
2023-05-02T13:32:25.922Z,9.66
2023-05-02T13:34:55.444Z,10.02
2023-05-02T13:37:25.080Z,10.11
2023-05-02T13:39:57.201Z,9.75
2023-05-02T13:42:26.943Z,9.56
2023-05-02T13:44:56.486Z,9.30
2023-05-02T13:47:26.566Z,9.19
2023-05-02T13:49:56.253Z,9.12
2023-05-02T13:52:25.767Z,8.87
2023-05-02T13:54:57.897Z,8.86
2023-05-02T13:57:27.467Z,8.84
2023-05-02T13:59:57.016Z,8.82
2023-05-02T14:02:26.776Z,8.89
2023-05-02T14:04:58.550Z,8.96
2023-05-02T14:07:28.047Z,9.32
2023-05-02T14:10:00.433Z,9.34
2023-05-02T14:12:30.204Z,9.78
2023-05-02T14:14:59.778Z,9.56
2023-05-02T14:17:29.346Z,9.48
2023-05-02T14:19:58.919Z,9.42
2023-05-02T14:22:28.806Z,9.23
2023-05-02T14:25:00.906Z,9.17
2023-05-02T14:27:30.621Z,9.07
2023-05-02T14:30:00.522Z,9.08
2023-05-02T14:32:30.474Z,9.19
2023-05-02T14:35:00.023Z,9.18
2023-05-02T14:37:29.539Z,9.17
2023-05-02T14:40:02.367Z,9.17
2023-05-02T14:42:32.189Z,9.25
2023-05-02T14:45:02.519Z,9.36
2023-05-02T14:47:32.844Z,9.62
2023-05-02T14:50:02.701Z,9.81
2023-05-02T14:52:32.476Z,9.73
2023-05-02T14:55:05.056Z,9.64
2023-05-02T14:57:34.911Z,9.56
2023-05-02T15:00:05.101Z,9.39
2023-05-02T15:02:35.041Z,9.36
2023-05-02T15:05:05.702Z,9.27
2023-05-02T15:07:35.178Z,9.22
2023-05-02T15:10:08.108Z,9.10
2023-05-02T15:12:37.796Z,9.20
2023-05-02T15:15:09.540Z,9.18
2023-05-02T15:17:39.412Z,9.27
2023-05-02T15:20:10.606Z,9.23
2023-05-02T15:22:40.177Z,9.37
2023-05-02T15:25:13.039Z,9.42
2023-05-02T15:27:42.746Z,9.41
2023-05-02T15:30:14.273Z,9.24
2023-05-02T15:32:44.959Z,9.02
2023-05-02T15:35:14.472Z,8.97
2023-05-02T15:37:43.971Z,8.94
2023-05-02T15:40:17.360Z,8.98
2023-05-02T15:42:47.177Z,9.31
2023-05-02T15:45:16.902Z,9.56
2023-05-02T15:47:46.962Z,9.57
2023-05-02T15:50:16.998Z,9.41
2023-05-02T15:52:46.551Z,9.41
2023-05-02T15:55:18.929Z,9.47
2023-05-02T15:57:51.860Z,9.57
2023-05-02T16:00:22.107Z,9.95
2023-05-02T16:02:51.633Z,10.06
2023-05-02T16:05:21.180Z,10.46
2023-05-02T16:07:51.214Z,10.73
2023-05-02T16:10:23.767Z,10.52
2023-05-02T16:12:53.348Z,10.56
2023-05-02T16:15:22.878Z,10.25
2023-05-02T16:17:53.071Z,10.09
2023-05-02T16:20:22.770Z,9.67
2023-05-02T16:22:52.564Z,9.48
2023-05-02T16:25:24.818Z,9.14
2023-05-02T16:27:54.292Z,9.08
2023-05-02T16:30:24.126Z,9.07
2023-05-02T16:32:53.717Z,9.08
2023-05-02T16:35:23.697Z,9.21
2023-05-02T16:37:53.193Z,9.37
2023-05-02T16:40:27.498Z,9.48
2023-05-02T16:42:57.902Z,9.21
2023-05-02T16:45:27.608Z,9.17
2023-05-02T16:47:57.216Z,8.91
2023-05-02T16:50:26.960Z,8.79
2023-05-02T16:52:56.490Z,8.68
2023-05-02T16:55:29.005Z,8.66
2023-05-02T16:57:58.475Z,8.54
2023-05-02T17:00:28.120Z,8.70
2023-05-02T17:02:57.696Z,8.72
2023-05-02T17:05:27.313Z,8.92
2023-05-02T17:07:56.785Z,8.89
2023-05-02T17:10:29.070Z,8.72
2023-05-02T17:12:59.360Z,8.72
2023-05-02T17:15:29.215Z,8.60
2023-05-02T17:17:58.686Z,8.47
2023-05-02T17:20:28.360Z,8.43
2023-05-02T17:22:57.901Z,8.50
2023-05-02T17:25:29.969Z,8.35
2023-05-02T17:27:59.453Z,8.35
2023-05-02T17:30:29.547Z,8.38
2023-05-02T17:32:59.201Z,8.31
2023-05-02T17:35:28.789Z,8.35
2023-05-02T17:37:58.346Z,8.19
2023-05-02T17:40:30.509Z,8.28
2023-05-02T17:43:01.688Z,8.72
2023-05-02T17:45:31.706Z,8.59
2023-05-02T17:48:03.273Z,8.11
2023-05-02T17:50:34.060Z,8.57
2023-05-02T17:53:04.870Z,8.15
2023-05-02T17:55:39.708Z,8.05
2023-05-02T17:58:09.317Z,8.09
2023-05-02T18:00:38.769Z,7.77
2023-05-02T18:03:08.364Z,7.76
2023-05-02T18:05:44.241Z,7.70
2023-05-02T18:08:13.759Z,7.75
2023-05-02T18:10:45.822Z,7.63
2023-05-02T18:13:15.515Z,7.64
2023-05-02T18:15:45.355Z,7.53
2023-05-02T18:18:15.029Z,7.51
2023-05-02T18:20:44.733Z,7.49
2023-05-02T18:23:14.233Z,7.38
2023-05-02T18:25:46.443Z,7.39
2023-05-02T18:28:16.070Z,7.38
2023-05-02T18:30:45.671Z,7.35
2023-05-02T18:33:15.296Z,7.23
2023-05-02T18:35:49.219Z,7.16
2023-05-02T18:38:20.421Z,7.19
2023-05-02T18:40:55.653Z,7.15
2023-05-02T18:43:25.149Z,7.19
2023-05-02T18:45:54.656Z,7.14
2023-05-02T18:48:24.168Z,7.12
2023-05-02T18:50:54.043Z,7.06
2023-05-02T18:53:26.221Z,7.05
2023-05-02T18:55:58.745Z,7.05
2023-05-02T18:58:28.258Z,7.04
2023-05-02T19:00:57.951Z,7.02
2023-05-02T19:03:27.769Z,6.96
2023-05-02T19:05:57.895Z,6.94
2023-05-02T19:08:27.677Z,6.88
2023-05-02T19:10:59.835Z,6.85
2023-05-02T19:13:29.676Z,6.82
2023-05-02T19:15:59.219Z,6.80
2023-05-02T19:18:28.764Z,6.77
2023-05-02T19:20:58.728Z,6.78
2023-05-02T19:23:31.515Z,6.73
2023-05-02T19:26:03.628Z,6.71
2023-05-02T19:28:33.226Z,6.70
2023-05-02T19:31:02.723Z,6.56
2023-05-02T19:33:32.232Z,6.50
2023-05-02T19:36:01.756Z,6.49
2023-05-02T19:38:31.228Z,6.43
2023-05-02T19:41:03.430Z,6.35
2023-05-02T19:43:33.120Z,6.31
2023-05-02T19:46:02.694Z,6.27
2023-05-02T19:48:32.183Z,6.20
2023-05-02T19:51:04.116Z,6.15
2023-05-02T19:53:33.669Z,6.16
2023-05-02T19:56:07.367Z,6.07
2023-05-02T19:58:37.299Z,6.05
2023-05-02T20:01:06.909Z,6.01
2023-05-02T20:03:36.926Z,5.95
2023-05-02T20:06:06.887Z,5.89
2023-05-02T20:08:36.423Z,5.86
2023-05-02T20:11:08.486Z,5.83
2023-05-02T20:13:37.971Z,5.78
2023-05-02T20:16:07.867Z,5.72
2023-05-02T20:18:37.426Z,5.68
2023-05-02T20:21:06.998Z,5.68
2023-05-02T20:23:36.456Z,5.62
2023-05-02T20:26:08.783Z,5.59
2023-05-02T20:28:38.382Z,5.51
2023-05-02T20:31:08.163Z,5.44
2023-05-02T20:33:45.181Z,5.46
2023-05-02T20:36:17.434Z,5.41
2023-05-02T20:38:47.992Z,5.45
2023-05-02T20:41:20.397Z,5.41
2023-05-02T20:43:49.871Z,5.40
2023-05-02T20:46:20.218Z,5.33
2023-05-02T20:48:50.030Z,5.30
2023-05-02T20:51:19.487Z,5.29
2023-05-02T20:53:49.135Z,5.30
2023-05-02T20:56:21.457Z,5.27
2023-05-02T20:58:50.969Z,5.22
2023-05-02T21:01:20.571Z,5.21
2023-05-02T21:03:50.377Z,5.15
2023-05-02T21:06:21.645Z,5.14
2023-05-02T21:08:51.222Z,5.09
2023-05-02T21:11:23.292Z,5.11
2023-05-02T21:13:52.855Z,5.09
2023-05-02T21:16:23.505Z,5.03
2023-05-02T21:18:53.153Z,5.04
2023-05-02T21:21:22.690Z,5.04
2023-05-02T21:23:52.333Z,5.03
2023-05-02T21:26:25.917Z,5.02
2023-05-02T21:28:55.531Z,4.96
2023-05-02T21:31:25.062Z,4.97
2023-05-02T21:33:54.633Z,4.93
2023-05-02T21:36:24.127Z,4.83
2023-05-02T21:38:54.163Z,4.85
2023-05-02T21:41:26.269Z,4.82
2023-05-02T21:43:55.747Z,4.80
2023-05-02T21:46:27.534Z,4.73
2023-05-02T21:48:57.052Z,4.82
2023-05-02T21:51:26.550Z,4.84
2023-05-02T21:53:56.331Z,4.73
2023-05-02T21:56:28.543Z,4.57
2023-05-02T21:58:57.994Z,4.46
2023-05-02T22:01:27.680Z,4.39
2023-05-02T22:04:00.890Z,4.41
2023-05-02T22:06:30.426Z,4.50
2023-05-02T22:08:59.961Z,4.40
2023-05-02T22:11:33.537Z,4.18
2023-05-02T22:14:03.032Z,4.10
2023-05-02T22:16:32.657Z,4.13
2023-05-02T22:19:02.333Z,4.12
2023-05-02T22:21:32.093Z,4.15
2023-05-02T22:24:01.769Z,4.11
2023-05-02T22:26:33.813Z,4.09
2023-05-02T22:29:03.270Z,3.99
2023-05-02T22:31:32.811Z,3.97
2023-05-02T22:34:02.291Z,3.94
2023-05-02T22:36:31.777Z,3.95
2023-05-02T22:39:01.354Z,4.00
2023-05-02T22:41:33.527Z,3.95
2023-05-02T22:44:03.088Z,3.90
2023-05-02T22:46:32.625Z,3.87
2023-05-02T22:49:03.052Z,3.82
2023-05-02T22:51:32.728Z,3.67
2023-05-02T22:54:04.868Z,3.55
2023-05-02T22:56:37.095Z,3.47
2023-05-02T22:59:06.559Z,3.57
2023-05-02T23:01:36.399Z,3.64
2023-05-02T23:04:06.120Z,3.67
2023-05-02T23:06:35.629Z,3.60
2023-05-02T23:09:05.261Z,3.48
2023-05-02T23:11:37.885Z,3.44
2023-05-02T23:14:07.363Z,3.46
2023-05-02T23:16:37.099Z,3.39
2023-05-02T23:19:06.625Z,3.42
2023-05-02T23:21:36.295Z,3.25
2023-05-02T23:24:05.892Z,3.31
2023-05-02T23:26:37.997Z,3.24
2023-05-02T23:29:08.474Z,3.21
2023-05-02T23:31:38.083Z,3.08
2023-05-02T23:34:07.739Z,3.09
2023-05-02T23:36:37.400Z,3.10
2023-05-02T23:39:07.652Z,3.09
2023-05-02T23:41:39.782Z,3.03
2023-05-02T23:44:09.511Z,3.07
2023-05-02T23:46:41.981Z,3.02
2023-05-02T23:49:11.493Z,3.00
2023-05-02T23:51:41.821Z,3.07
2023-05-02T23:54:11.291Z,3.05
2023-05-02T23:56:46.311Z,3.07
2023-05-02T23:59:15.814Z,2.97
